createdAt,value
2022-09-25T00:02:43.611Z,10.85
2022-09-25T00:06:48.581Z,11.95
2022-09-25T00:10:51.281Z,12.27
2022-09-25T00:14:53.404Z,11.02
2022-09-25T00:19:17.448Z,15.48
2022-09-25T00:23:18.856Z,12.50
2022-09-25T00:27:20.507Z,13.43
2022-09-25T00:31:24.776Z,13.10
2022-09-25T00:35:26.428Z,13.73
2022-09-25T00:39:28.364Z,14.52
2022-09-25T00:43:44.729Z,17.73
2022-09-25T00:47:59.796Z,15.63
2022-09-25T00:52:06.719Z,13.45
2022-09-25T00:56:09.979Z,17.37
2022-09-25T01:00:12.851Z,13.82
2022-09-25T01:04:14.930Z,15.07
2022-09-25T01:08:22.636Z,16.08
2022-09-25T01:12:24.011Z,12.80
2022-09-25T01:16:44.334Z,13.85
2022-09-25T01:20:57.592Z,13.20
2022-09-25T01:25:36.965Z,14.23
2022-09-25T01:30:21.079Z,12.77
2022-09-25T01:34:44.212Z,16.27
2022-09-25T01:38:51.502Z,17.48
2022-09-25T01:43:05.639Z,16.73
2022-09-25T01:47:14.515Z,20.67
2022-09-25T01:51:20.555Z,20.05
2022-09-25T01:55:32.112Z,21.73
2022-09-25T01:59:37.997Z,20.88
2022-09-25T02:03:47.625Z,22.55
2022-09-25T02:07:52.819Z,21.63
2022-09-25T02:11:57.326Z,19.77
2022-09-25T02:16:02.370Z,21.67
2022-09-25T02:20:23.301Z,28.55
2022-09-25T02:24:30.135Z,26.13
2022-09-25T02:28:31.872Z,27.58
2022-09-25T02:32:33.874Z,23.65
2022-09-25T02:36:35.284Z,25.95
2022-09-25T02:40:44.719Z,25.45
2022-09-25T02:44:55.322Z,29.08
2022-09-25T02:49:05.302Z,27.58
2022-09-25T02:53:13.950Z,27.55
2022-09-25T02:57:32.675Z,24.42
2022-09-25T03:01:35.259Z,21.80
2022-09-25T03:05:37.575Z,24.85
2022-09-25T03:09:41.994Z,22.15
2022-09-25T03:13:43.849Z,20.60
2022-09-25T03:17:45.255Z,20.00
2022-09-25T03:21:47.408Z,21.85
2022-09-25T03:25:50.294Z,17.42
2022-09-25T03:29:52.083Z,17.20
2022-09-25T03:33:53.615Z,18.63
2022-09-25T03:37:54.984Z,16.85
2022-09-25T03:41:56.456Z,17.13
2022-09-25T03:45:58.150Z,15.98
2022-09-25T03:49:59.583Z,16.48
2022-09-25T03:54:01.155Z,14.18
2022-09-25T03:58:02.724Z,15.48
2022-09-25T04:02:04.326Z,15.18
2022-09-25T04:06:07.456Z,16.00
2022-09-25T04:10:09.184Z,17.65
2022-09-25T04:14:12.788Z,14.02
2022-09-25T04:18:14.670Z,16.77
2022-09-25T04:22:16.242Z,13.57
2022-09-25T04:26:17.635Z,13.18
2022-09-25T04:30:19.175Z,13.23
2022-09-25T04:34:20.769Z,13.57
2022-09-25T04:38:22.736Z,17.25
2022-09-25T04:42:24.910Z,17.23
2022-09-25T04:46:26.551Z,14.77
2022-09-25T04:50:29.214Z,16.95
2022-09-25T04:54:31.765Z,13.90
2022-09-25T04:58:33.834Z,13.73
2022-09-25T05:02:35.576Z,16.30
2022-09-25T05:06:37.166Z,16.35
2022-09-25T05:10:42.220Z,17.60
2022-09-25T05:14:45.504Z,19.55
2022-09-25T05:18:47.073Z,21.85
2022-09-25T05:22:48.537Z,22.27
2022-09-25T05:26:49.959Z,21.48
2022-09-25T05:30:51.567Z,20.92
2022-09-25T05:34:53.421Z,19.77
2022-09-25T05:38:55.971Z,12.88
2022-09-25T05:42:58.299Z,11.35
2022-09-25T05:46:59.875Z,10.80
2022-09-25T05:51:01.338Z,12.07
2022-09-25T05:55:03.670Z,11.60
2022-09-25T05:59:05.157Z,11.40
2022-09-25T06:03:06.767Z,11.18
2022-09-25T06:07:10.053Z,12.98
2022-09-25T06:11:11.598Z,13.00
2022-09-25T06:15:13.228Z,13.68
2022-09-25T06:19:14.669Z,15.32
2022-09-25T06:23:17.180Z,12.63
2022-09-25T06:27:18.625Z,12.73
2022-09-25T06:31:20.179Z,14.43
2022-09-25T06:35:21.884Z,16.63
2022-09-25T06:39:23.538Z,16.83
2022-09-25T06:43:25.201Z,17.45
2022-09-25T06:47:27.080Z,14.70
2022-09-25T06:51:32.561Z,16.20
2022-09-25T06:55:37.801Z,15.20
2022-09-25T06:59:39.714Z,16.30
2022-09-25T07:03:44.913Z,16.02
2022-09-25T07:07:47.670Z,16.27
2022-09-25T07:11:50.416Z,14.82
2022-09-25T07:15:59.774Z,16.42
2022-09-25T07:20:01.436Z,14.13
2022-09-25T07:24:02.892Z,20.42
2022-09-25T07:28:04.532Z,19.08
2022-09-25T07:32:06.114Z,21.17
2022-09-25T07:36:08.509Z,22.58
2022-09-25T07:40:13.725Z,18.23
2022-09-25T07:44:28.638Z,17.42
2022-09-25T07:48:31.803Z,19.02
2022-09-25T07:52:33.406Z,15.10
2022-09-25T07:56:34.955Z,16.02
2022-09-25T08:00:36.521Z,16.30
2022-09-25T08:04:38.036Z,13.23
2022-09-25T08:08:41.182Z,16.60
2022-09-25T08:12:43.235Z,17.42
2022-09-25T08:16:45.003Z,13.77
2022-09-25T08:20:46.656Z,18.70
2022-09-25T08:24:49.515Z,14.02
2022-09-25T08:28:51.503Z,13.10
2022-09-25T08:32:53.198Z,14.75
2022-09-25T08:36:55.367Z,11.45
2022-09-25T08:41:04.116Z,13.90
2022-09-25T08:45:30.751Z,12.73
2022-09-25T08:49:38.990Z,11.77
2022-09-25T08:53:42.610Z,14.13
2022-09-25T08:57:45.335Z,10.07
2022-09-25T09:01:50.291Z,8.95
2022-09-25T09:06:16.542Z,11.57
2022-09-25T09:10:41.804Z,8.63
2022-09-25T09:14:49.409Z,9.02
2022-09-25T09:18:51.137Z,12.95
2022-09-25T09:22:55.481Z,8.40
2022-09-25T09:27:16.916Z,7.93
2022-09-25T09:31:41.605Z,9.23
2022-09-25T09:36:07.745Z,10.13
2022-09-25T09:40:27.976Z,9.55
2022-09-25T09:44:35.396Z,11.02
2022-09-25T09:48:41.974Z,10.02
2022-09-25T09:52:44.728Z,8.45
2022-09-25T09:56:48.521Z,12.13
2022-09-25T10:00:51.192Z,13.10
2022-09-25T10:04:55.597Z,12.52
2022-09-25T10:08:56.995Z,9.98
2022-09-25T10:13:05.634Z,8.02
2022-09-25T10:17:11.660Z,11.30
2022-09-25T10:21:21.276Z,8.05
2022-09-25T10:25:38.763Z,8.45
2022-09-25T10:29:40.146Z,8.00
2022-09-25T10:33:41.670Z,7.82
2022-09-25T10:37:43.624Z,6.85
2022-09-25T10:41:45.674Z,9.93
2022-09-25T10:45:54.384Z,8.18
2022-09-25T10:50:11.046Z,7.93
2022-09-25T10:54:15.757Z,9.63
2022-09-25T10:58:24.340Z,9.82
2022-09-25T11:02:38.626Z,8.82
2022-09-25T11:06:48.071Z,8.30
2022-09-25T11:10:57.842Z,9.93
2022-09-25T11:15:02.422Z,11.27
2022-09-25T11:19:39.418Z,11.90
2022-09-25T11:23:46.015Z,11.60
2022-09-25T11:27:56.232Z,13.43
2022-09-25T11:32:05.044Z,12.52
2022-09-25T11:36:10.995Z,13.98
2022-09-25T11:40:51.274Z,10.93
2022-09-25T11:45:02.971Z,11.68
2022-09-25T11:49:15.988Z,12.75
2022-09-25T11:53:17.975Z,12.35
2022-09-25T11:57:32.034Z,12.15
2022-09-25T12:01:58.936Z,14.88
2022-09-25T12:06:22.159Z,18.25
2022-09-25T12:10:29.490Z,19.50
2022-09-25T12:15:00.214Z,21.85
2022-09-25T12:19:11.038Z,18.45
2022-09-25T12:23:25.442Z,15.55
2022-09-25T12:27:45.115Z,19.17
2022-09-25T12:32:02.262Z,20.98
2022-09-25T12:36:11.873Z,21.55
2022-09-25T12:40:33.493Z,18.48
2022-09-25T12:44:58.804Z,23.42
2022-09-25T12:49:23.336Z,21.23
2022-09-25T12:53:31.830Z,18.83
2022-09-25T12:57:42.543Z,17.60
2022-09-25T13:01:47.290Z,16.30
2022-09-25T13:06:07.587Z,18.75
2022-09-25T13:10:28.167Z,18.17
2022-09-25T13:14:34.767Z,17.77
2022-09-25T13:18:36.455Z,17.40
2022-09-25T13:22:40.552Z,19.60
2022-09-25T13:26:48.608Z,17.75
2022-09-25T13:31:15.863Z,18.35
2022-09-25T13:35:19.960Z,17.98
2022-09-25T13:39:40.519Z,17.77
2022-09-25T13:43:41.928Z,15.60
2022-09-25T13:47:51.428Z,21.15
2022-09-25T13:51:52.798Z,17.77
2022-09-25T13:55:57.980Z,21.00
2022-09-25T14:00:03.722Z,16.77
2022-09-25T14:04:15.899Z,18.40
2022-09-25T14:08:17.767Z,18.95
2022-09-25T14:12:28.179Z,15.63
2022-09-25T14:16:49.554Z,17.77
2022-09-25T14:20:56.620Z,17.35
2022-09-25T14:24:58.044Z,16.70
2022-09-25T14:28:59.818Z,17.98
2022-09-25T14:33:42.291Z,17.08
2022-09-25T14:38:06.787Z,18.38
2022-09-25T14:42:37.863Z,18.27
2022-09-25T14:46:39.680Z,19.90
2022-09-25T14:50:56.641Z,14.90
2022-09-25T14:55:00.304Z,17.23
2022-09-25T14:59:10.317Z,13.27
2022-09-25T15:03:13.814Z,15.90
2022-09-25T15:07:23.505Z,14.32
2022-09-25T15:11:29.748Z,12.57
2022-09-25T15:15:31.294Z,12.57
2022-09-25T15:19:42.748Z,13.60
2022-09-25T15:23:45.329Z,14.77
2022-09-25T15:27:46.901Z,14.20
2022-09-25T15:31:52.660Z,13.27
2022-09-25T15:35:59.026Z,12.02
2022-09-25T15:40:14.618Z,13.27
2022-09-25T15:44:20.364Z,17.15
2022-09-25T15:48:32.987Z,12.82
2022-09-25T15:52:34.673Z,16.63
2022-09-25T15:56:45.811Z,15.95
2022-09-25T16:01:16.326Z,14.20
2022-09-25T16:05:21.633Z,16.17
2022-09-25T16:09:30.427Z,15.48
2022-09-25T16:13:36.587Z,15.95
2022-09-25T16:17:40.954Z,15.23
2022-09-25T16:21:42.393Z,15.82
2022-09-25T16:25:44.653Z,15.48
2022-09-25T16:29:46.171Z,15.63
2022-09-25T16:33:50.058Z,15.55
2022-09-25T16:37:52.429Z,18.48
2022-09-25T16:41:54.153Z,13.77
2022-09-25T16:46:00.387Z,14.88
2022-09-25T16:50:02.013Z,13.52
2022-09-25T16:54:03.500Z,10.90
2022-09-25T16:58:10.280Z,12.80
2022-09-25T17:02:25.478Z,11.63
2022-09-25T17:06:27.476Z,13.07
2022-09-25T17:10:31.934Z,12.02
2022-09-25T17:14:34.174Z,12.02
2022-09-25T17:18:35.816Z,11.75
2022-09-25T17:22:37.526Z,9.70
2022-09-25T17:26:39.389Z,7.65
2022-09-25T17:30:42.303Z,7.22
2022-09-25T17:34:45.687Z,9.88
2022-09-25T17:38:47.151Z,10.57
2022-09-25T17:42:48.824Z,8.75
2022-09-25T17:46:55.909Z,10.32
2022-09-25T17:51:02.320Z,10.60
2022-09-25T17:55:14.868Z,9.50
2022-09-25T17:59:16.526Z,10.57
2022-09-25T18:03:18.333Z,12.40
2022-09-25T18:07:20.327Z,11.40
2022-09-25T18:11:25.590Z,10.90
2022-09-25T18:15:27.711Z,10.95
2022-09-25T18:19:48.249Z,10.88
2022-09-25T18:23:49.770Z,12.45
2022-09-25T18:27:51.389Z,12.68
2022-09-25T18:31:52.810Z,12.52
2022-09-25T18:35:54.512Z,13.65
2022-09-25T18:39:56.229Z,15.07
2022-09-25T18:43:58.069Z,15.13
2022-09-25T18:47:59.588Z,14.77
2022-09-25T18:52:01.355Z,18.13
2022-09-25T18:56:02.708Z,15.85
2022-09-25T19:00:04.720Z,15.48
2022-09-25T19:04:06.895Z,17.90
2022-09-25T19:08:09.616Z,20.02
2022-09-25T19:12:17.362Z,18.98
2022-09-25T19:16:21.246Z,15.55
2022-09-25T19:20:23.186Z,15.05
2022-09-25T19:24:24.560Z,16.75
2022-09-25T19:28:26.762Z,16.95
2022-09-25T19:32:28.230Z,23.05
2022-09-25T19:36:31.896Z,20.00
2022-09-25T19:40:39.967Z,19.73
2022-09-25T19:44:41.841Z,20.73
2022-09-25T19:48:44.666Z,21.48
2022-09-25T19:52:50.753Z,25.08
2022-09-25T19:56:52.941Z,24.02
2022-09-25T20:00:56.950Z,22.92
2022-09-25T20:04:58.621Z,26.38
2022-09-25T20:09:02.083Z,26.00
2022-09-25T20:13:04.574Z,27.30
2022-09-25T20:17:10.126Z,25.60
2022-09-25T20:21:13.997Z,32.97
2022-09-25T20:25:15.634Z,23.48
2022-09-25T20:29:17.432Z,23.73
2022-09-25T20:33:18.939Z,30.70
2022-09-25T20:37:20.665Z,26.15
2022-09-25T20:41:23.597Z,27.65
2022-09-25T20:45:25.241Z,23.95
2022-09-25T20:49:26.904Z,26.63
2022-09-25T20:53:28.431Z,23.55
2022-09-25T20:57:35.697Z,31.58
2022-09-25T21:01:37.987Z,29.98
2022-09-25T21:05:39.951Z,25.25
2022-09-25T21:09:41.862Z,22.50
2022-09-25T21:13:43.299Z,26.85
2022-09-25T21:17:44.761Z,24.05
2022-09-25T21:21:47.124Z,21.48
2022-09-25T21:25:48.799Z,23.90
2022-09-25T21:29:50.583Z,19.30
2022-09-25T21:33:53.567Z,19.10
2022-09-25T21:37:55.160Z,16.90
2022-09-25T21:41:57.382Z,18.08
2022-09-25T21:46:00.399Z,18.30
2022-09-25T21:50:02.130Z,17.90
2022-09-25T21:54:04.039Z,19.52
2022-09-25T21:58:05.421Z,18.55
2022-09-25T22:02:07.893Z,24.58
2022-09-25T22:06:14.739Z,17.67
2022-09-25T22:10:16.149Z,15.10
2022-09-25T22:14:19.331Z,18.48
2022-09-25T22:18:20.803Z,14.20
2022-09-25T22:22:22.636Z,18.38
2022-09-25T22:26:24.893Z,16.98
2022-09-25T22:30:27.198Z,15.27
2022-09-25T22:34:29.472Z,15.32
2022-09-25T22:38:31.005Z,14.25
2022-09-25T22:42:32.376Z,16.88
2022-09-25T22:46:34.063Z,19.10
2022-09-25T22:50:35.892Z,17.50
2022-09-25T22:54:37.355Z,16.48
2022-09-25T22:58:39.483Z,16.70
2022-09-25T23:02:41.148Z,15.55
2022-09-25T23:06:43.224Z,15.63
2022-09-25T23:11:06.182Z,19.27
2022-09-25T23:15:06.662Z,17.00
2022-09-25T23:19:08.309Z,16.15
2022-09-25T23:23:09.909Z,16.70
2022-09-25T23:27:11.470Z,15.95
2022-09-25T23:31:15.822Z,12.20
2022-09-25T23:35:17.436Z,16.85
2022-09-25T23:39:20.111Z,15.07
2022-09-25T23:43:21.499Z,13.82
2022-09-25T23:47:22.886Z,15.05
2022-09-25T23:51:26.393Z,18.85
2022-09-25T23:55:27.813Z,15.68
2022-09-25T23:59:29.528Z,15.57
